Ürümqi Diwopu International Airport
ZWWW : now visible

Airfield :











YOU CAN JOIN US ON...

 
LOGIN :

Register | Disclaimer

   EN    FR    IT 

 









Legend :    VFR   Marginal VFR   IFR   Intensive IFR   Very Intensive IFR
Visi :
Ceiling :
>= 8 km
>= 3000ft
5 to 8 km
1000 to 3000 ft
1500m to 5 km
500 to 1000 ft
800 to 1500m
200 to 500 ft
< 800m
< 200 ft
Symbols :   Thunderstorms  Fog  Heavy snow  Heavy precipitations  Wind > 20 kt






- Airport Elevation : 2125 ft
- IATA code : URC


ZWWW - Ürümqi Diwopu International

CURRENT METAR :
  • 250030Z 13003MPS 110V170 CAVOK 27/14 Q1005 NOSIG

EXPIRED METARs :
  • 250000Z VRB02MPS CAVOK 28/14 Q1005 NOSIG
  • 242330Z 00000MPS 9999 -SHRA FEW040 27/14 Q1005 NOSIG
  • 242300Z VRB01MPS 9999 -SHRA FEW040 27/14 Q1005 NOSIG
  • 242230Z 18002MPS 150V220 9999 -SHRA FEW046 28/13 Q1004 NOSIG
  • 242200Z 25003MPS CAVOK 27/13 Q1004 NOSIG
  • 242130Z 24003MPS CAVOK 27/13 Q1004 NOSIG
  • 242100Z 25003MPS 210V290 CAVOK 27/13 Q1004 NOSIG
  • 242030Z 26002MPS 200V300 CAVOK 27/13 Q1004 NOSIG
  • 242000Z VRB01MPS CAVOK 27/13 Q1004 NOSIG

TAF TAF ZWWW
Valid from the 25 at 00:00 until the 26 at 00:00 UTC


242102Z 2500/2524 25004MPS CAVOK TX34/2509Z TN25/2523Z
TEMPO 2500/2502 9999 -SHRA FEW040CB BKN040
BECMG 2502/2503 02004MPS
BECMG 2514/2515 18004MPS
ZWUQ FIR / Asia



MET'MAP, your aeronautical weather chart ! - Copyright ORBIFLY December 2007 - Disclaimer

ORBIFLY MET'MAP TEAM :

Programming & Development : Alexandra Zaïnal
Original concept : Baudouin d'Aumeries
Technical & hardware support : Manuel Goepfert
Assistance : Marc-Olivier Méhu




SOURCES & CREDITS :

   NOAA       Earth
Advisory